sensor_id;sensor_type;location;lat;lon;timestamp;temperature;humidity
53520;DHT22;39397;53.204;5.778;2022-07-17T00:00:51;13.00;99.90
53520;DHT22;39397;53.204;5.778;2022-07-17T00:03:17;12.40;99.90
53520;DHT22;39397;53.204;5.778;2022-07-17T00:05:44;12.40;99.90
53520;DHT22;39397;53.204;5.778;2022-07-17T00:08:11;12.50;99.90
53520;DHT22;39397;53.204;5.778;2022-07-17T00:10:39;12.50;99.90
53520;DHT22;39397;53.204;5.778;2022-07-17T00:13:05;12.40;99.90
53520;DHT22;39397;53.204;5.778;2022-07-17T00:15:31;12.50;99.90
53520;DHT22;39397;53.204;5.778;2022-07-17T00:17:57;12.30;99.90
53520;DHT22;39397;53.204;5.778;2022-07-17T00:20:26;12.30;99.90
53520;DHT22;39397;53.204;5.778;2022-07-17T00:22:52;13.10;99.90
53520;DHT22;39397;53.204;5.778;2022-07-17T00:25:19;12.40;99.90
53520;DHT22;39397;53.204;5.778;2022-07-17T00:27:45;12.30;99.90
53520;DHT22;39397;53.204;5.778;2022-07-17T00:30:11;12.30;99.90
53520;DHT22;39397;53.204;5.778;2022-07-17T00:32:38;12.20;99.90
53520;DHT22;39397;53.204;5.778;2022-07-17T00:35:04;12.40;99.90
53520;DHT22;39397;53.204;5.778;2022-07-17T00:37:30;12.10;99.90
53520;DHT22;39397;53.204;5.778;2022-07-17T00:39:56;12.20;99.90
53520;DHT22;39397;53.204;5.778;2022-07-17T00:42:22;12.20;99.90
53520;DHT22;39397;53.204;5.778;2022-07-17T00:44:47;12.10;99.90
53520;DHT22;39397;53.204;5.778;2022-07-17T00:49:40;12.10;99.90
53520;DHT22;39397;53.204;5.778;2022-07-17T00:52:07;12.20;99.90
53520;DHT22;39397;53.204;5.778;2022-07-17T00:54:38;12.10;99.90
53520;DHT22;39397;53.204;5.778;2022-07-17T00:57:12;12.10;99.90
53520;DHT22;39397;53.204;5.778;2022-07-17T00:59:38;12.60;99.90
53520;DHT22;39397;53.204;5.778;2022-07-17T01:02:09;12.00;99.90
53520;DHT22;39397;53.204;5.778;2022-07-17T01:04:35;11.90;99.90
53520;DHT22;39397;53.204;5.778;2022-07-17T01:07:03;12.00;99.90
53520;DHT22;39397;53.204;5.778;2022-07-17T01:09:30;12.20;99.90
53520;DHT22;39397;53.204;5.778;2022-07-17T01:11:56;12.30;99.90
53520;DHT22;39397;53.204;5.778;2022-07-17T01:14:23;11.80;99.90
53520;DHT22;39397;53.204;5.778;2022-07-17T01:16:50;12.10;99.90
53520;DHT22;39397;53.204;5.778;2022-07-17T01:19:16;12.40;99.90
53520;DHT22;39397;53.204;5.778;2022-07-17T01:21:44;12.80;99.90
53520;DHT22;39397;53.204;5.778;2022-07-17T01:24:10;11.90;99.90
53520;DHT22;39397;53.204;5.778;2022-07-17T01:26:37;11.80;99.90
53520;DHT22;39397;53.204;5.778;2022-07-17T01:29:03;11.90;99.90
53520;DHT22;39397;53.204;5.778;2022-07-17T01:31:29;11.90;99.90
53520;DHT22;39397;53.204;5.778;2022-07-17T01:33:55;12.00;99.90
53520;DHT22;39397;53.204;5.778;2022-07-17T01:36:22;11.90;99.90
53520;DHT22;39397;53.204;5.778;2022-07-17T01:38:48;11.80;99.90
53520;DHT22;39397;53.204;5.778;2022-07-17T01:41:14;12.70;99.90
53520;DHT22;39397;53.204;5.778;2022-07-17T01:43:40;11.90;99.90
53520;DHT22;39397;53.204;5.778;2022-07-17T01:46:06;11.90;99.90
53520;DHT22;39397;53.204;5.778;2022-07-17T01:48:31;12.00;99.90
53520;DHT22;39397;53.204;5.778;2022-07-17T01:50:57;11.80;99.90
53520;DHT22;39397;53.204;5.778;2022-07-17T01:53:22;13.00;99.90
53520;DHT22;39397;53.204;5.778;2022-07-17T01:55:48;11.70;99.90
53520;DHT22;39397;53.204;5.778;2022-07-17T01:58:15;12.60;99.90
53520;DHT22;39397;53.204;5.778;2022-07-17T02:00:41;11.80;99.90
53520;DHT22;39397;53.204;5.778;2022-07-17T02:03:07;11.80;99.90
53520;DHT22;39397;53.204;5.778;2022-07-17T02:05:32;12.60;99.90
53520;DHT22;39397;53.204;5.778;2022-07-17T02:07:58;11.70;99.90
53520;DHT22;39397;53.204;5.778;2022-07-17T02:10:25;11.70;99.90
53520;DHT22;39397;53.204;5.778;2022-07-17T02:12:51;12.10;99.90
53520;DHT22;39397;53.204;5.778;2022-07-17T02:15:17;12.70;99.90
53520;DHT22;39397;53.204;5.778;2022-07-17T02:17:42;11.80;99.90
53520;DHT22;39397;53.204;5.778;2022-07-17T02:20:09;11.70;99.90
53520;DHT22;39397;53.204;5.778;2022-07-17T02:22:36;11.70;99.90
53520;DHT22;39397;53.204;5.778;2022-07-17T02:25:03;11.70;99.90
53520;DHT22;39397;53.204;5.778;2022-07-17T02:27:31;11.70;99.90
53520;DHT22;39397;53.204;5.778;2022-07-17T02:29:56;12.40;99.90
53520;DHT22;39397;53.204;5.778;2022-07-17T02:32:22;12.60;99.90
53520;DHT22;39397;53.204;5.778;2022-07-17T02:34:48;11.60;99.90
53520;DHT22;39397;53.204;5.778;2022-07-17T02:37:14;12.40;99.90
53520;DHT22;39397;53.204;5.778;2022-07-17T02:39:40;11.60;99.90
53520;DHT22;39397;53.204;5.778;2022-07-17T02:42:28;11.70;99.90
53520;DHT22;39397;53.204;5.778;2022-07-17T02:44:54;11.70;99.90
53520;DHT22;39397;53.204;5.778;2022-07-17T02:47:28;12.50;99.90
53520;DHT22;39397;53.204;5.778;2022-07-17T02:49:55;11.60;99.90
53520;DHT22;39397;53.204;5.778;2022-07-17T02:52:21;11.70;99.90
53520;DHT22;39397;53.204;5.778;2022-07-17T02:54:47;11.90;99.90
53520;DHT22;39397;53.204;5.778;2022-07-17T02:57:13;12.60;99.90
53520;DHT22;39397;53.204;5.778;2022-07-17T02:59:39;12.00;99.90
53520;DHT22;39397;53.204;5.778;2022-07-17T03:02:05;11.70;99.90
53520;DHT22;39397;53.204;5.778;2022-07-17T03:04:31;11.70;99.90
53520;DHT22;39397;53.204;5.778;2022-07-17T03:06:57;11.60;99.90
53520;DHT22;39397;53.204;5.778;2022-07-17T03:09:22;11.80;99.90
53520;DHT22;39397;53.204;5.778;2022-07-17T03:11:48;11.50;99.90
53520;DHT22;39397;53.204;5.778;2022-07-17T03:14:14;12.50;99.90
53520;DHT22;39397;53.204;5.778;2022-07-17T03:16:39;11.60;99.90
53520;DHT22;39397;53.204;5.778;2022-07-17T03:19:05;12.30;99.90
53520;DHT22;39397;53.204;5.778;2022-07-17T03:21:31;12.30;99.90
53520;DHT22;39397;53.204;5.778;2022-07-17T03:23:56;11.60;99.90
53520;DHT22;39397;53.204;5.778;2022-07-17T03:26:22;12.60;99.90
53520;DHT22;39397;53.204;5.778;2022-07-17T03:28:48;12.00;99.90
53520;DHT22;39397;53.204;5.778;2022-07-17T03:31:14;11.80;99.90
53520;DHT22;39397;53.204;5.778;2022-07-17T03:33:39;12.50;99.90
53520;DHT22;39397;53.204;5.778;2022-07-17T03:36:05;11.70;99.90
53520;DHT22;39397;53.204;5.778;2022-07-17T03:38:32;11.70;99.90
53520;DHT22;39397;53.204;5.778;2022-07-17T03:40:57;12.90;99.90
53520;DHT22;39397;53.204;5.778;2022-07-17T03:43:23;11.80;99.90
53520;DHT22;39397;53.204;5.778;2022-07-17T03:45:49;12.50;99.90
53520;DHT22;39397;53.204;5.778;2022-07-17T03:48:14;11.90;99.90
53520;DHT22;39397;53.204;5.778;2022-07-17T03:50:40;12.00;99.90
53520;DHT22;39397;53.204;5.778;2022-07-17T03:53:06;12.00;99.90
53520;DHT22;39397;53.204;5.778;2022-07-17T03:55:32;13.00;99.90
53520;DHT22;39397;53.204;5.778;2022-07-17T03:57:58;12.10;99.90
53520;DHT22;39397;53.204;5.778;2022-07-17T04:00:25;12.20;99.90
53520;DHT22;39397;53.204;5.778;2022-07-17T04:02:50;12.20;99.90
53520;DHT22;39397;53.204;5.778;2022-07-17T04:05:16;12.30;99.90
53520;DHT22;39397;53.204;5.778;2022-07-17T04:07:42;12.40;99.90
53520;DHT22;39397;53.204;5.778;2022-07-17T04:10:11;12.40;99.90
53520;DHT22;39397;53.204;5.778;2022-07-17T04:12:37;12.60;99.90
53520;DHT22;39397;53.204;5.778;2022-07-17T04:15:04;12.50;99.90
53520;DHT22;39397;53.204;5.778;2022-07-17T04:17:30;12.60;99.90
53520;DHT22;39397;53.204;5.778;2022-07-17T04:19:55;12.70;99.90
53520;DHT22;39397;53.204;5.778;2022-07-17T04:22:21;12.70;99.90
53520;DHT22;39397;53.204;5.778;2022-07-17T04:24:47;12.80;99.90
53520;DHT22;39397;53.204;5.778;2022-07-17T04:27:13;12.90;99.90
53520;DHT22;39397;53.204;5.778;2022-07-17T04:29:39;12.80;99.90
53520;DHT22;39397;53.204;5.778;2022-07-17T04:32:05;13.00;99.90
53520;DHT22;39397;53.204;5.778;2022-07-17T04:34:31;13.00;99.90
53520;DHT22;39397;53.204;5.778;2022-07-17T04:36:58;13.10;99.90
53520;DHT22;39397;53.204;5.778;2022-07-17T04:39:24;13.20;99.90
53520;DHT22;39397;53.204;5.778;2022-07-17T04:41:50;13.30;99.90
53520;DHT22;39397;53.204;5.778;2022-07-17T04:44:16;13.30;99.90
53520;DHT22;39397;53.204;5.778;2022-07-17T04:46:42;13.30;99.90
53520;DHT22;39397;53.204;5.778;2022-07-17T04:49:08;13.30;99.90
53520;DHT22;39397;53.204;5.778;2022-07-17T04:51:33;13.30;99.90
53520;DHT22;39397;53.204;5.778;2022-07-17T04:53:59;13.50;99.90
53520;DHT22;39397;53.204;5.778;2022-07-17T04:56:25;13.90;99.90
53520;DHT22;39397;53.204;5.778;2022-07-17T04:58:51;13.60;99.90
53520;DHT22;39397;53.204;5.778;2022-07-17T05:01:16;13.70;99.90
53520;DHT22;39397;53.204;5.778;2022-07-17T05:03:42;13.80;99.90
53520;DHT22;39397;53.204;5.778;2022-07-17T05:06:08;13.60;99.90
53520;DHT22;39397;53.204;5.778;2022-07-17T05:08:35;13.70;99.90
53520;DHT22;39397;53.204;5.778;2022-07-17T05:11:01;13.80;99.90
53520;DHT22;39397;53.204;5.778;2022-07-17T05:13:26;13.90;99.90
53520;DHT22;39397;53.204;5.778;2022-07-17T05:15:52;13.90;99.90
53520;DHT22;39397;53.204;5.778;2022-07-17T05:18:18;13.90;99.90
53520;DHT22;39397;53.204;5.778;2022-07-17T05:20:44;13.90;99.90
53520;DHT22;39397;53.204;5.778;2022-07-17T05:23:09;14.00;99.90
53520;DHT22;39397;53.204;5.778;2022-07-17T05:25:35;14.10;99.90
53520;DHT22;39397;53.204;5.778;2022-07-17T05:28:01;14.20;99.90
53520;DHT22;39397;53.204;5.778;2022-07-17T05:30:28;14.30;99.90
53520;DHT22;39397;53.204;5.778;2022-07-17T05:32:54;14.30;99.90
53520;DHT22;39397;53.204;5.778;2022-07-17T05:35:20;14.30;99.90
53520;DHT22;39397;53.204;5.778;2022-07-17T05:37:46;14.50;99.90
53520;DHT22;39397;53.204;5.778;2022-07-17T05:40:12;14.60;99.90
53520;DHT22;39397;53.204;5.778;2022-07-17T05:42:38;14.70;99.90
53520;DHT22;39397;53.204;5.778;2022-07-17T05:45:04;14.90;99.90
53520;DHT22;39397;53.204;5.778;2022-07-17T05:47:30;15.00;99.90
53520;DHT22;39397;53.204;5.778;2022-07-17T05:49:56;15.10;99.90
53520;DHT22;39397;53.204;5.778;2022-07-17T05:52:21;15.10;99.90
53520;DHT22;39397;53.204;5.778;2022-07-17T05:54:47;15.30;99.90
53520;DHT22;39397;53.204;5.778;2022-07-17T05:57:13;15.40;99.90
53520;DHT22;39397;53.204;5.778;2022-07-17T05:59:39;15.70;99.90
53520;DHT22;39397;53.204;5.778;2022-07-17T06:02:05;15.70;99.90
53520;DHT22;39397;53.204;5.778;2022-07-17T06:04:38;15.90;99.90
53520;DHT22;39397;53.204;5.778;2022-07-17T06:07:04;16.00;99.90
53520;DHT22;39397;53.204;5.778;2022-07-17T06:09:30;16.00;99.90
53520;DHT22;39397;53.204;5.778;2022-07-17T06:11:56;16.10;99.90
53520;DHT22;39397;53.204;5.778;2022-07-17T06:14:24;16.20;99.90
53520;DHT22;39397;53.204;5.778;2022-07-17T06:16:50;16.10;99.90
53520;DHT22;39397;53.204;5.778;2022-07-17T06:19:16;16.40;99.90
53520;DHT22;39397;53.204;5.778;2022-07-17T06:21:42;16.50;99.90
53520;DHT22;39397;53.204;5.778;2022-07-17T06:24:07;16.60;99.90
53520;DHT22;39397;53.204;5.778;2022-07-17T06:26:33;16.80;99.90
53520;DHT22;39397;53.204;5.778;2022-07-17T06:28:59;16.90;99.90
53520;DHT22;39397;53.204;5.778;2022-07-17T06:31:25;16.80;99.90
53520;DHT22;39397;53.204;5.778;2022-07-17T06:33:50;16.90;99.90
53520;DHT22;39397;53.204;5.778;2022-07-17T06:36:16;17.00;99.90
53520;DHT22;39397;53.204;5.778;2022-07-17T06:38:42;17.00;99.90
53520;DHT22;39397;53.204;5.778;2022-07-17T06:41:07;17.00;99.90
53520;DHT22;39397;53.204;5.778;2022-07-17T06:43:33;17.10;99.90
53520;DHT22;39397;53.204;5.778;2022-07-17T06:45:59;17.20;99.90
53520;DHT22;39397;53.204;5.778;2022-07-17T06:48:25;17.10;99.90
53520;DHT22;39397;53.204;5.778;2022-07-17T06:50:50;17.30;99.90
53520;DHT22;39397;53.204;5.778;2022-07-17T06:53:16;17.30;99.90
53520;DHT22;39397;53.204;5.778;2022-07-17T06:55:42;17.40;99.90
53520;DHT22;39397;53.204;5.778;2022-07-17T06:58:08;17.40;99.90
53520;DHT22;39397;53.204;5.778;2022-07-17T07:00:33;17.60;99.90
53520;DHT22;39397;53.204;5.778;2022-07-17T07:03:00;17.70;99.90
53520;DHT22;39397;53.204;5.778;2022-07-17T07:05:25;17.70;99.90
53520;DHT22;39397;53.204;5.778;2022-07-17T07:07:51;17.70;99.90
53520;DHT22;39397;53.204;5.778;2022-07-17T07:10:17;17.80;99.90
53520;DHT22;39397;53.204;5.778;2022-07-17T07:12:43;17.80;99.90
53520;DHT22;39397;53.204;5.778;2022-07-17T07:15:09;17.70;99.90
53520;DHT22;39397;53.204;5.778;2022-07-17T07:17:35;17.70;99.90
53520;DHT22;39397;53.204;5.778;2022-07-17T07:20:02;17.80;99.90
53520;DHT22;39397;53.204;5.778;2022-07-17T07:22:30;17.80;99.90
53520;DHT22;39397;53.204;5.778;2022-07-17T07:24:55;17.90;99.90
53520;DHT22;39397;53.204;5.778;2022-07-17T07:27:21;17.90;99.90
53520;DHT22;39397;53.204;5.778;2022-07-17T07:29:47;18.00;99.90
53520;DHT22;39397;53.204;5.778;2022-07-17T07:32:12;18.10;99.90
53520;DHT22;39397;53.204;5.778;2022-07-17T07:34:38;18.20;99.90
53520;DHT22;39397;53.204;5.778;2022-07-17T07:37:04;18.30;99.90
53520;DHT22;39397;53.204;5.778;2022-07-17T07:39:29;18.40;99.90
53520;DHT22;39397;53.204;5.778;2022-07-17T07:41:55;18.60;99.90
53520;DHT22;39397;53.204;5.778;2022-07-17T07:44:21;18.60;99.90
53520;DHT22;39397;53.204;5.778;2022-07-17T07:46:46;18.70;99.90
53520;DHT22;39397;53.204;5.778;2022-07-17T07:49:12;18.70;99.90
53520;DHT22;39397;53.204;5.778;2022-07-17T07:51:38;18.90;99.90
53520;DHT22;39397;53.204;5.778;2022-07-17T07:54:03;18.90;99.90
53520;DHT22;39397;53.204;5.778;2022-07-17T07:56:29;19.10;99.90
53520;DHT22;39397;53.204;5.778;2022-07-17T07:58:55;19.00;99.90
53520;DHT22;39397;53.204;5.778;2022-07-17T08:01:20;19.00;99.90
53520;DHT22;39397;53.204;5.778;2022-07-17T08:03:46;19.00;99.90
53520;DHT22;39397;53.204;5.778;2022-07-17T08:06:12;19.00;99.90
53520;DHT22;39397;53.204;5.778;2022-07-17T08:08:40;19.10;99.90
53520;DHT22;39397;53.204;5.778;2022-07-17T08:11:05;19.00;99.90
53520;DHT22;39397;53.204;5.778;2022-07-17T08:13:31;19.30;99.90
53520;DHT22;39397;53.204;5.778;2022-07-17T08:16:00;19.20;99.90
53520;DHT22;39397;53.204;5.778;2022-07-17T08:18:26;17.50;99.90
53520;DHT22;39397;53.204;5.778;2022-07-17T08:20:53;19.30;99.90
53520;DHT22;39397;53.204;5.778;2022-07-17T08:23:19;19.40;99.90
53520;DHT22;39397;53.204;5.778;2022-07-17T08:25:45;19.50;99.90
53520;DHT22;39397;53.204;5.778;2022-07-17T08:28:16;19.50;99.90
53520;DHT22;39397;53.204;5.778;2022-07-17T08:30:42;18.50;99.90
53520;DHT22;39397;53.204;5.778;2022-07-17T08:33:09;19.70;99.90
53520;DHT22;39397;53.204;5.778;2022-07-17T08:35:36;19.90;99.90
53520;DHT22;39397;53.204;5.778;2022-07-17T08:38:03;19.90;99.90
53520;DHT22;39397;53.204;5.778;2022-07-17T08:40:31;20.00;99.90
53520;DHT22;39397;53.204;5.778;2022-07-17T08:42:59;20.10;99.90
53520;DHT22;39397;53.204;5.778;2022-07-17T08:45:26;20.20;99.90
53520;DHT22;39397;53.204;5.778;2022-07-17T08:47:54;20.40;99.90
53520;DHT22;39397;53.204;5.778;2022-07-17T08:50:23;20.60;99.90
53520;DHT22;39397;53.204;5.778;2022-07-17T08:52:49;20.70;99.90
53520;DHT22;39397;53.204;5.778;2022-07-17T08:55:15;20.90;99.90
53520;DHT22;39397;53.204;5.778;2022-07-17T08:57:42;20.90;99.90
53520;DHT22;39397;53.204;5.778;2022-07-17T09:00:10;21.00;99.90
53520;DHT22;39397;53.204;5.778;2022-07-17T09:02:39;21.00;99.90
53520;DHT22;39397;53.204;5.778;2022-07-17T09:05:07;21.00;99.90
53520;DHT22;39397;53.204;5.778;2022-07-17T09:07:33;20.90;99.90
53520;DHT22;39397;53.204;5.778;2022-07-17T09:09:59;21.10;99.90
53520;DHT22;39397;53.204;5.778;2022-07-17T09:12:26;21.10;99.90
53520;DHT22;39397;53.204;5.778;2022-07-17T09:14:53;21.20;99.90
53520;DHT22;39397;53.204;5.778;2022-07-17T09:17:18;21.20;99.90
53520;DHT22;39397;53.204;5.778;2022-07-17T09:19:45;21.10;99.90
53520;DHT22;39397;53.204;5.778;2022-07-17T09:22:15;21.30;99.90
53520;DHT22;39397;53.204;5.778;2022-07-17T09:24:57;21.30;99.90
53520;DHT22;39397;53.204;5.778;2022-07-17T09:32:22;21.30;99.90
53520;DHT22;39397;53.204;5.778;2022-07-17T09:34:50;21.30;99.10
53520;DHT22;39397;53.204;5.778;2022-07-17T09:37:16;21.40;99.80
53520;DHT22;39397;53.204;5.778;2022-07-17T09:39:43;21.40;99.50
53520;DHT22;39397;53.204;5.778;2022-07-17T09:42:09;21.40;99.30
53520;DHT22;39397;53.204;5.778;2022-07-17T09:45:00;21.60;99.40
53520;DHT22;39397;53.204;5.778;2022-07-17T09:47:30;21.80;99.70
53520;DHT22;39397;53.204;5.778;2022-07-17T09:49:57;21.80;99.20
53520;DHT22;39397;53.204;5.778;2022-07-17T09:52:25;22.00;98.60
53520;DHT22;39397;53.204;5.778;2022-07-17T09:54:53;22.10;98.10
53520;DHT22;39397;53.204;5.778;2022-07-17T09:57:24;22.10;97.90
53520;DHT22;39397;53.204;5.778;2022-07-17T09:59:51;22.20;98.10
53520;DHT22;39397;53.204;5.778;2022-07-17T10:02:19;22.20;97.90
53520;DHT22;39397;53.204;5.778;2022-07-17T10:04:46;22.40;97.70
53520;DHT22;39397;53.204;5.778;2022-07-17T10:07:12;22.40;97.50
53520;DHT22;39397;53.204;5.778;2022-07-17T10:09:39;22.50;96.90
53520;DHT22;39397;53.204;5.778;2022-07-17T10:12:06;22.70;96.50
53520;DHT22;39397;53.204;5.778;2022-07-17T10:14:33;22.60;96.50
53520;DHT22;39397;53.204;5.778;2022-07-17T10:17:09;22.60;96.20
53520;DHT22;39397;53.204;5.778;2022-07-17T10:19:46;22.80;95.50
53520;DHT22;39397;53.204;5.778;2022-07-17T10:22:13;23.60;96.30
53520;DHT22;39397;53.204;5.778;2022-07-17T10:24:50;23.00;95.90
53520;DHT22;39397;53.204;5.778;2022-07-17T10:27:29;23.30;95.30
53520;DHT22;39397;53.204;5.778;2022-07-17T10:32:30;23.40;95.10
53520;DHT22;39397;53.204;5.778;2022-07-17T10:35:04;23.30;94.90
53520;DHT22;39397;53.204;5.778;2022-07-17T10:37:39;23.40;94.60
53520;DHT22;39397;53.204;5.778;2022-07-17T10:40:15;23.40;94.20
53520;DHT22;39397;53.204;5.778;2022-07-17T10:43:00;23.50;93.30
53520;DHT22;39397;53.204;5.778;2022-07-17T10:45:34;23.60;94.50
53520;DHT22;39397;53.204;5.778;2022-07-17T10:48:03;23.60;94.10
53520;DHT22;39397;53.204;5.778;2022-07-17T10:53:15;23.70;94.10
53520;DHT22;39397;53.204;5.778;2022-07-17T10:55:55;23.80;95.00
53520;DHT22;39397;53.204;5.778;2022-07-17T10:58:25;24.10;94.40
53520;DHT22;39397;53.204;5.778;2022-07-17T11:03:31;24.10;93.60
53520;DHT22;39397;53.204;5.778;2022-07-17T11:06:30;24.10;93.40
53520;DHT22;39397;53.204;5.778;2022-07-17T11:09:10;24.40;93.80
53520;DHT22;39397;53.204;5.778;2022-07-17T11:11:47;24.60;93.20
53520;DHT22;39397;53.204;5.778;2022-07-17T11:14:21;24.50;91.90
53520;DHT22;39397;53.204;5.778;2022-07-17T11:16:50;24.60;91.50
53520;DHT22;39397;53.204;5.778;2022-07-17T11:19:26;24.50;91.60
53520;DHT22;39397;53.204;5.778;2022-07-17T11:21:54;24.40;91.30
53520;DHT22;39397;53.204;5.778;2022-07-17T11:24:20;24.40;91.00
53520;DHT22;39397;53.204;5.778;2022-07-17T11:26:49;24.40;90.90
53520;DHT22;39397;53.204;5.778;2022-07-17T11:29:15;24.40;90.70
53520;DHT22;39397;53.204;5.778;2022-07-17T11:31:41;24.40;90.80
53520;DHT22;39397;53.204;5.778;2022-07-17T11:34:09;24.50;90.90
53520;DHT22;39397;53.204;5.778;2022-07-17T11:36:39;24.60;90.60
53520;DHT22;39397;53.204;5.778;2022-07-17T11:39:12;24.80;90.00
53520;DHT22;39397;53.204;5.778;2022-07-17T11:41:44;24.70;87.70
53520;DHT22;39397;53.204;5.778;2022-07-17T11:44:15;24.80;87.40
53520;DHT22;39397;53.204;5.778;2022-07-17T11:46:44;24.80;86.50
53520;DHT22;39397;53.204;5.778;2022-07-17T11:49:11;24.70;88.60
53520;DHT22;39397;53.204;5.778;2022-07-17T11:51:40;24.90;88.00
53520;DHT22;39397;53.204;5.778;2022-07-17T11:54:08;25.00;85.90
53520;DHT22;39397;53.204;5.778;2022-07-17T11:56:34;24.90;86.10
53520;DHT22;39397;53.204;5.778;2022-07-17T11:59:01;24.90;85.90
53520;DHT22;39397;53.204;5.778;2022-07-17T12:01:39;25.00;85.60
53520;DHT22;39397;53.204;5.778;2022-07-17T12:04:08;25.00;86.00
53520;DHT22;39397;53.204;5.778;2022-07-17T12:06:34;25.20;85.00
53520;DHT22;39397;53.204;5.778;2022-07-17T12:08:59;25.10;84.10
53520;DHT22;39397;53.204;5.778;2022-07-17T12:11:25;25.10;84.20
53520;DHT22;39397;53.204;5.778;2022-07-17T12:13:51;25.10;84.50
53520;DHT22;39397;53.204;5.778;2022-07-17T12:18:57;25.30;84.80
53520;DHT22;39397;53.204;5.778;2022-07-17T12:21:23;25.50;83.50
53520;DHT22;39397;53.204;5.778;2022-07-17T12:26:52;25.60;83.50
53520;DHT22;39397;53.204;5.778;2022-07-17T12:29:18;25.60;83.80
53520;DHT22;39397;53.204;5.778;2022-07-17T12:31:44;25.70;83.30
53520;DHT22;39397;53.204;5.778;2022-07-17T12:34:10;25.70;83.10
53520;DHT22;39397;53.204;5.778;2022-07-17T12:36:36;25.70;82.60
53520;DHT22;39397;53.204;5.778;2022-07-17T12:39:02;25.70;82.50
53520;DHT22;39397;53.204;5.778;2022-07-17T12:41:28;25.70;81.80
53520;DHT22;39397;53.204;5.778;2022-07-17T12:43:53;25.70;81.30
53520;DHT22;39397;53.204;5.778;2022-07-17T12:46:19;25.40;81.40
53520;DHT22;39397;53.204;5.778;2022-07-17T12:48:45;25.30;81.50
53520;DHT22;39397;53.204;5.778;2022-07-17T12:51:12;25.30;81.90
53520;DHT22;39397;53.204;5.778;2022-07-17T12:53:43;25.40;81.80
53520;DHT22;39397;53.204;5.778;2022-07-17T12:56:09;25.60;81.50
53520;DHT22;39397;53.204;5.778;2022-07-17T12:58:36;25.60;80.40
53520;DHT22;39397;53.204;5.778;2022-07-17T13:01:03;25.60;80.70
53520;DHT22;39397;53.204;5.778;2022-07-17T13:03:29;25.70;80.80
53520;DHT22;39397;53.204;5.778;2022-07-17T13:05:55;25.80;81.40
53520;DHT22;39397;53.204;5.778;2022-07-17T13:08:20;25.80;81.40
53520;DHT22;39397;53.204;5.778;2022-07-17T13:10:46;25.90;81.50
53520;DHT22;39397;53.204;5.778;2022-07-17T13:13:12;25.90;81.30
53520;DHT22;39397;53.204;5.778;2022-07-17T13:15:38;26.00;81.30
53520;DHT22;39397;53.204;5.778;2022-07-17T13:18:03;26.00;80.80
53520;DHT22;39397;53.204;5.778;2022-07-17T13:20:29;26.10;81.50
53520;DHT22;39397;53.204;5.778;2022-07-17T13:22:55;26.30;81.00
53520;DHT22;39397;53.204;5.778;2022-07-17T13:25:21;26.40;80.00
53520;DHT22;39397;53.204;5.778;2022-07-17T13:27:46;26.40;79.40
53520;DHT22;39397;53.204;5.778;2022-07-17T13:30:12;26.50;80.00
53520;DHT22;39397;53.204;5.778;2022-07-17T13:32:38;26.60;79.40
53520;DHT22;39397;53.204;5.778;2022-07-17T13:35:05;26.50;79.30
53520;DHT22;39397;53.204;5.778;2022-07-17T13:37:31;26.40;78.40
53520;DHT22;39397;53.204;5.778;2022-07-17T13:39:57;26.60;78.70
53520;DHT22;39397;53.204;5.778;2022-07-17T13:42:23;26.60;78.40
53520;DHT22;39397;53.204;5.778;2022-07-17T13:44:49;26.50;78.30
53520;DHT22;39397;53.204;5.778;2022-07-17T13:47:14;26.50;78.60
53520;DHT22;39397;53.204;5.778;2022-07-17T13:49:40;26.50;78.80
53520;DHT22;39397;53.204;5.778;2022-07-17T13:52:06;26.60;79.10
53520;DHT22;39397;53.204;5.778;2022-07-17T13:54:32;26.70;78.40
53520;DHT22;39397;53.204;5.778;2022-07-17T13:56:57;26.80;78.00
53520;DHT22;39397;53.204;5.778;2022-07-17T13:59:25;26.70;77.50
53520;DHT22;39397;53.204;5.778;2022-07-17T14:01:51;26.90;77.30
53520;DHT22;39397;53.204;5.778;2022-07-17T14:04:17;26.70;76.50
53520;DHT22;39397;53.204;5.778;2022-07-17T14:06:43;26.80;76.10
53520;DHT22;39397;53.204;5.778;2022-07-17T14:09:09;26.90;75.90
53520;DHT22;39397;53.204;5.778;2022-07-17T14:11:36;26.70;75.80
53520;DHT22;39397;53.204;5.778;2022-07-17T14:14:02;27.00;75.80
53520;DHT22;39397;53.204;5.778;2022-07-17T14:16:28;26.90;75.50
53520;DHT22;39397;53.204;5.778;2022-07-17T14:18:54;26.90;76.10
53520;DHT22;39397;53.204;5.778;2022-07-17T14:21:36;27.10;74.80
53520;DHT22;39397;53.204;5.778;2022-07-17T14:24:04;27.20;74.40
53520;DHT22;39397;53.204;5.778;2022-07-17T14:26:30;27.40;75.50
53520;DHT22;39397;53.204;5.778;2022-07-17T14:28:57;27.60;74.60
53520;DHT22;39397;53.204;5.778;2022-07-17T14:31:22;27.50;74.20
53520;DHT22;39397;53.204;5.778;2022-07-17T14:33:48;27.50;74.30
53520;DHT22;39397;53.204;5.778;2022-07-17T14:36:14;27.60;73.30
53520;DHT22;39397;53.204;5.778;2022-07-17T14:38:40;27.60;73.10
53520;DHT22;39397;53.204;5.778;2022-07-17T14:41:06;27.90;73.70
53520;DHT22;39397;53.204;5.778;2022-07-17T14:43:32;28.00;73.10
53520;DHT22;39397;53.204;5.778;2022-07-17T14:45:57;28.20;72.50
53520;DHT22;39397;53.204;5.778;2022-07-17T14:48:23;28.30;71.80
53520;DHT22;39397;53.204;5.778;2022-07-17T14:50:49;28.50;71.60
53520;DHT22;39397;53.204;5.778;2022-07-17T14:53:15;28.70;71.90
53520;DHT22;39397;53.204;5.778;2022-07-17T14:55:40;29.10;70.60
53520;DHT22;39397;53.204;5.778;2022-07-17T14:58:06;29.10;69.80
53520;DHT22;39397;53.204;5.778;2022-07-17T15:00:32;29.10;69.30
53520;DHT22;39397;53.204;5.778;2022-07-17T15:02:58;29.00;69.10
53520;DHT22;39397;53.204;5.778;2022-07-17T15:05:23;29.00;68.70
53520;DHT22;39397;53.204;5.778;2022-07-17T15:07:49;29.00;68.00
53520;DHT22;39397;53.204;5.778;2022-07-17T15:10:15;29.00;68.00
53520;DHT22;39397;53.204;5.778;2022-07-17T15:12:41;28.80;68.00
53520;DHT22;39397;53.204;5.778;2022-07-17T15:15:07;29.00;67.40
53520;DHT22;39397;53.204;5.778;2022-07-17T15:17:32;28.90;66.10
53520;DHT22;39397;53.204;5.778;2022-07-17T15:19:58;28.90;66.20
53520;DHT22;39397;53.204;5.778;2022-07-17T15:22:24;29.00;66.20
53520;DHT22;39397;53.204;5.778;2022-07-17T15:24:50;29.20;66.40
53520;DHT22;39397;53.204;5.778;2022-07-17T15:27:15;29.50;66.00
53520;DHT22;39397;53.204;5.778;2022-07-17T15:29:41;29.60;65.30
53520;DHT22;39397;53.204;5.778;2022-07-17T15:32:07;30.00;64.00
53520;DHT22;39397;53.204;5.778;2022-07-17T15:34:33;30.10;63.30
53520;DHT22;39397;53.204;5.778;2022-07-17T15:36:59;29.90;62.90
53520;DHT22;39397;53.204;5.778;2022-07-17T15:39:24;29.70;63.70
53520;DHT22;39397;53.204;5.778;2022-07-17T15:41:50;29.70;62.70
53520;DHT22;39397;53.204;5.778;2022-07-17T15:44:16;29.70;62.60
53520;DHT22;39397;53.204;5.778;2022-07-17T15:46:42;29.60;62.60
53520;DHT22;39397;53.204;5.778;2022-07-17T15:49:08;29.80;62.80